sensor_id;sensor_type;location;lat;lon;timestamp;P1;durP1;ratioP1;P2;durP2;ratioP2
5678;SDS011;2862;52.560;13.566;2023-04-07T00:02:41;23.10;;;4.53;;
5678;SDS011;2862;52.560;13.566;2023-04-07T00:12:44;19.70;;;4.57;;
5678;SDS011;2862;52.560;13.566;2023-04-07T00:22:49;21.83;;;5.67;;
5678;SDS011;2862;52.560;13.566;2023-04-07T00:32:52;20.10;;;5.17;;
5678;SDS011;2862;52.560;13.566;2023-04-07T00:42:56;20.00;;;5.13;;
5678;SDS011;2862;52.560;13.566;2023-04-07T00:52:59;23.53;;;5.90;;
5678;SDS011;2862;52.560;13.566;2023-04-07T01:03:04;23.00;;;4.53;;
5678;SDS011;2862;52.560;13.566;2023-04-07T01:13:19;18.87;;;4.60;;
5678;SDS011;2862;52.560;13.566;2023-04-07T01:23:54;21.23;;;4.73;;
5678;SDS011;2862;52.560;13.566;2023-04-07T01:34:15;27.40;;;4.70;;
5678;SDS011;2862;52.560;13.566;2023-04-07T01:44:19;22.27;;;4.93;;
5678;SDS011;2862;52.560;13.566;2023-04-07T01:54:25;23.37;;;5.03;;
5678;SDS011;2862;52.560;13.566;2023-04-07T02:04:29;18.80;;;4.97;;
5678;SDS011;2862;52.560;13.566;2023-04-07T02:14:40;21.50;;;5.00;;
5678;SDS011;2862;52.560;13.566;2023-04-07T02:24:47;24.20;;;5.13;;
5678;SDS011;2862;52.560;13.566;2023-04-07T02:34:51;23.17;;;5.30;;
5678;SDS011;2862;52.560;13.566;2023-04-07T02:44:55;24.00;;;5.97;;
5678;SDS011;2862;52.560;13.566;2023-04-07T02:54:59;21.50;;;5.50;;
5678;SDS011;2862;52.560;13.566;2023-04-07T03:05:03;24.30;;;5.87;;
5678;SDS011;2862;52.560;13.566;2023-04-07T03:15:08;23.37;;;5.07;;
5678;SDS011;2862;52.560;13.566;2023-04-07T03:25:15;24.13;;;5.73;;
5678;SDS011;2862;52.560;13.566;2023-04-07T03:35:20;24.53;;;6.07;;
5678;SDS011;2862;52.560;13.566;2023-04-07T03:45:24;23.90;;;5.13;;
5678;SDS011;2862;52.560;13.566;2023-04-07T03:55:28;27.17;;;6.50;;
5678;SDS011;2862;52.560;13.566;2023-04-07T04:05:38;25.97;;;5.57;;
5678;SDS011;2862;52.560;13.566;2023-04-07T04:15:48;30.17;;;6.13;;
5678;SDS011;2862;52.560;13.566;2023-04-07T04:25:51;22.10;;;4.90;;
5678;SDS011;2862;52.560;13.566;2023-04-07T04:35:56;27.00;;;7.00;;
5678;SDS011;2862;52.560;13.566;2023-04-07T04:46:00;26.57;;;7.53;;
5678;SDS011;2862;52.560;13.566;2023-04-07T04:56:10;23.67;;;5.97;;
5678;SDS011;2862;52.560;13.566;2023-04-07T05:06:17;27.37;;;6.67;;
5678;SDS011;2862;52.560;13.566;2023-04-07T05:16:25;23.40;;;5.60;;
5678;SDS011;2862;52.560;13.566;2023-04-07T05:26:30;28.37;;;7.63;;
5678;SDS011;2862;52.560;13.566;2023-04-07T05:36:36;29.30;;;8.10;;
5678;SDS011;2862;52.560;13.566;2023-04-07T05:46:40;25.97;;;7.10;;
5678;SDS011;2862;52.560;13.566;2023-04-07T05:56:45;27.90;;;8.03;;
5678;SDS011;2862;52.560;13.566;2023-04-07T06:06:49;25.30;;;6.93;;
5678;SDS011;2862;52.560;13.566;2023-04-07T06:16:55;27.23;;;7.67;;
5678;SDS011;2862;52.560;13.566;2023-04-07T06:26:58;29.13;;;8.20;;
5678;SDS011;2862;52.560;13.566;2023-04-07T06:37:03;28.70;;;7.47;;
5678;SDS011;2862;52.560;13.566;2023-04-07T06:47:07;25.37;;;8.47;;
5678;SDS011;2862;52.560;13.566;2023-04-07T06:57:12;34.83;;;9.17;;
5678;SDS011;2862;52.560;13.566;2023-04-07T07:07:15;23.60;;;6.23;;
5678;SDS011;2862;52.560;13.566;2023-04-07T07:17:20;32.17;;;7.73;;
5678;SDS011;2862;52.560;13.566;2023-04-07T07:27:23;21.27;;;5.20;;
5678;SDS011;2862;52.560;13.566;2023-04-07T07:37:28;21.97;;;5.07;;
5678;SDS011;2862;52.560;13.566;2023-04-07T07:47:31;25.53;;;6.00;;
5678;SDS011;2862;52.560;13.566;2023-04-07T07:57:38;23.67;;;4.50;;
5678;SDS011;2862;52.560;13.566;2023-04-07T08:07:41;28.80;;;5.50;;
5678;SDS011;2862;52.560;13.566;2023-04-07T08:17:45;27.60;;;5.07;;
5678;SDS011;2862;52.560;13.566;2023-04-07T08:27:48;24.77;;;6.70;;
5678;SDS011;2862;52.560;13.566;2023-04-07T08:37:52;21.33;;;3.93;;
5678;SDS011;2862;52.560;13.566;2023-04-07T08:47:55;20.90;;;4.57;;
5678;SDS011;2862;52.560;13.566;2023-04-07T08:58:12;19.20;;;4.10;;
5678;SDS011;2862;52.560;13.566;2023-04-07T09:08:22;21.23;;;5.10;;
5678;SDS011;2862;52.560;13.566;2023-04-07T09:18:27;21.77;;;4.60;;
5678;SDS011;2862;52.560;13.566;2023-04-07T09:28:42;17.27;;;2.70;;
5678;SDS011;2862;52.560;13.566;2023-04-07T09:38:47;22.03;;;2.60;;
5678;SDS011;2862;52.560;13.566;2023-04-07T09:48:59;16.87;;;1.87;;
5678;SDS011;2862;52.560;13.566;2023-04-07T09:59:06;23.53;;;5.33;;
5678;SDS011;2862;52.560;13.566;2023-04-07T10:09:10;23.53;;;5.53;;
5678;SDS011;2862;52.560;13.566;2023-04-07T10:19:15;16.90;;;1.80;;
5678;SDS011;2862;52.560;13.566;2023-04-07T10:29:52;22.80;;;5.87;;
5678;SDS011;2862;52.560;13.566;2023-04-07T10:50:31;19.80;;;4.00;;
5678;SDS011;2862;52.560;13.566;2023-04-07T11:00:35;20.97;;;4.93;;
5678;SDS011;2862;52.560;13.566;2023-04-07T11:10:38;24.33;;;7.00;;
5678;SDS011;2862;52.560;13.566;2023-04-07T11:20:46;34.47;;;15.23;;
5678;SDS011;2862;52.560;13.566;2023-04-07T11:30:52;44.77;;;21.50;;
5678;SDS011;2862;52.560;13.566;2023-04-07T11:41:08;36.43;;;16.53;;
5678;SDS011;2862;52.560;13.566;2023-04-07T11:51:21;34.80;;;13.27;;
5678;SDS011;2862;52.560;13.566;2023-04-07T12:01:33;36.57;;;14.20;;
5678;SDS011;2862;52.560;13.566;2023-04-07T12:11:47;42.37;;;16.00;;
5678;SDS011;2862;52.560;13.566;2023-04-07T12:21:52;42.27;;;14.93;;
5678;SDS011;2862;52.560;13.566;2023-04-07T12:31:56;42.37;;;14.07;;
5678;SDS011;2862;52.560;13.566;2023-04-07T12:42:01;23.57;;;7.00;;
5678;SDS011;2862;52.560;13.566;2023-04-07T12:52:03;23.43;;;5.50;;
5678;SDS011;2862;52.560;13.566;2023-04-07T13:02:08;22.47;;;5.93;;
5678;SDS011;2862;52.560;13.566;2023-04-07T13:12:13;19.53;;;4.00;;
5678;SDS011;2862;52.560;13.566;2023-04-07T13:22:17;17.60;;;4.23;;
5678;SDS011;2862;52.560;13.566;2023-04-07T13:32:22;26.37;;;5.03;;
5678;SDS011;2862;52.560;13.566;2023-04-07T13:42:26;19.80;;;5.00;;
5678;SDS011;2862;52.560;13.566;2023-04-07T13:52:29;22.50;;;7.50;;
5678;SDS011;2862;52.560;13.566;2023-04-07T14:02:37;17.27;;;3.90;;
5678;SDS011;2862;52.560;13.566;2023-04-07T14:12:41;19.40;;;3.90;;
5678;SDS011;2862;52.560;13.566;2023-04-07T14:22:45;26.70;;;10.13;;
5678;SDS011;2862;52.560;13.566;2023-04-07T14:32:47;22.10;;;6.50;;
5678;SDS011;2862;52.560;13.566;2023-04-07T14:42:52;29.80;;;8.93;;
5678;SDS011;2862;52.560;13.566;2023-04-07T14:53:07;21.93;;;6.13;;
5678;SDS011;2862;52.560;13.566;2023-04-07T15:03:11;23.73;;;6.20;;
5678;SDS011;2862;52.560;13.566;2023-04-07T15:13:14;15.80;;;3.50;;
5678;SDS011;2862;52.560;13.566;2023-04-07T15:23:19;21.40;;;5.90;;
5678;SDS011;2862;52.560;13.566;2023-04-07T15:33:22;20.90;;;4.73;;
5678;SDS011;2862;52.560;13.566;2023-04-07T15:43:26;30.30;;;10.30;;
5678;SDS011;2862;52.560;13.566;2023-04-07T15:53:29;25.43;;;6.80;;
5678;SDS011;2862;52.560;13.566;2023-04-07T16:03:33;18.13;;;4.00;;
5678;SDS011;2862;52.560;13.566;2023-04-07T16:13:36;22.10;;;4.50;;
5678;SDS011;2862;52.560;13.566;2023-04-07T16:23:40;19.27;;;4.60;;
5678;SDS011;2862;52.560;13.566;2023-04-07T16:33:44;23.83;;;6.70;;
5678;SDS011;2862;52.560;13.566;2023-04-07T16:43:48;21.23;;;5.80;;
5678;SDS011;2862;52.560;13.566;2023-04-07T16:53:51;19.83;;;5.03;;
5678;SDS011;2862;52.560;13.566;2023-04-07T17:03:55;23.53;;;6.40;;
5678;SDS011;2862;52.560;13.566;2023-04-07T17:13:58;20.10;;;5.90;;
5678;SDS011;2862;52.560;13.566;2023-04-07T17:24:02;25.17;;;6.57;;
5678;SDS011;2862;52.560;13.566;2023-04-07T17:34:04;25.67;;;5.63;;
5678;SDS011;2862;52.560;13.566;2023-04-07T17:44:09;21.70;;;5.07;;
5678;SDS011;2862;52.560;13.566;2023-04-07T17:54:12;24.53;;;7.10;;
5678;SDS011;2862;52.560;13.566;2023-04-07T18:04:16;15.87;;;3.30;;
5678;SDS011;2862;52.560;13.566;2023-04-07T18:14:19;18.30;;;4.07;;
5678;SDS011;2862;52.560;13.566;2023-04-07T18:24:23;18.63;;;5.00;;
5678;SDS011;2862;52.560;13.566;2023-04-07T18:34:26;17.20;;;3.60;;
5678;SDS011;2862;52.560;13.566;2023-04-07T18:44:30;16.83;;;3.93;;
5678;SDS011;2862;52.560;13.566;2023-04-07T18:54:34;14.57;;;2.43;;
5678;SDS011;2862;52.560;13.566;2023-04-07T19:04:38;18.70;;;5.13;;
5678;SDS011;2862;52.560;13.566;2023-04-07T19:14:41;18.87;;;3.37;;
5678;SDS011;2862;52.560;13.566;2023-04-07T19:24:45;21.50;;;6.37;;
5678;SDS011;2862;52.560;13.566;2023-04-07T19:34:48;20.80;;;5.67;;
5678;SDS011;2862;52.560;13.566;2023-04-07T19:44:52;22.50;;;5.80;;
5678;SDS011;2862;52.560;13.566;2023-04-07T19:54:57;25.70;;;6.80;;
5678;SDS011;2862;52.560;13.566;2023-04-07T20:05:02;24.00;;;5.83;;
5678;SDS011;2862;52.560;13.566;2023-04-07T20:15:06;28.03;;;7.03;;
5678;SDS011;2862;52.560;13.566;2023-04-07T20:25:11;26.10;;;7.60;;
5678;SDS011;2862;52.560;13.566;2023-04-07T20:35:14;23.63;;;7.20;;
5678;SDS011;2862;52.560;13.566;2023-04-07T20:45:19;22.20;;;7.00;;
5678;SDS011;2862;52.560;13.566;2023-04-07T20:55:23;28.80;;;9.20;;
5678;SDS011;2862;52.560;13.566;2023-04-07T21:05:28;36.20;;;13.20;;
5678;SDS011;2862;52.560;13.566;2023-04-07T21:15:31;26.60;;;10.13;;
5678;SDS011;2862;52.560;13.566;2023-04-07T21:25:36;27.83;;;9.77;;
5678;SDS011;2862;52.560;13.566;2023-04-07T21:35:39;30.67;;;10.53;;
5678;SDS011;2862;52.560;13.566;2023-04-07T21:45:43;32.63;;;12.37;;
5678;SDS011;2862;52.560;13.566;2023-04-07T21:55:47;33.33;;;11.33;;
5678;SDS011;2862;52.560;13.566;2023-04-07T22:05:51;35.13;;;12.90;;
5678;SDS011;2862;52.560;13.566;2023-04-07T22:15:54;37.97;;;16.80;;
5678;SDS011;2862;52.560;13.566;2023-04-07T22:25:58;29.10;;;11.57;;
5678;SDS011;2862;52.560;13.566;2023-04-07T22:36:01;29.33;;;11.23;;
5678;SDS011;2862;52.560;13.566;2023-04-07T22:46:05;30.60;;;11.30;;
5678;SDS011;2862;52.560;13.566;2023-04-07T22:56:08;35.57;;;11.07;;
5678;SDS011;2862;52.560;13.566;2023-04-07T23:06:12;30.10;;;11.53;;
5678;SDS011;2862;52.560;13.566;2023-04-07T23:16:16;33.73;;;11.17;;
5678;SDS011;2862;52.560;13.566;2023-04-07T23:26:20;35.30;;;13.00;;
5678;SDS011;2862;52.560;13.566;2023-04-07T23:36:23;39.03;;;14.10;;
5678;SDS011;2862;52.560;13.566;2023-04-07T23:46:29;43.53;;;15.07;;
5678;SDS011;2862;52.560;13.566;2023-04-07T23:56:32;47.83;;;16.90;;
